N129DC KAPA-KMTJ
Flight info
| Callsign | N129DC |
|---|---|
| Flight time | N/A |
| Altitude | 12500 |
| Route | DCT |
| Aircraft | T28/M-A/S |
Departure
| Time | 2026-04-19 12:28 |
|---|---|
| Airport | Centennial Airport (KAPA) |
Arrival
| Time | N/A |
|---|---|
| Airport | Montrose Regional Airport (KMTJ) |
| Time | Latitude | Longitude | Altitude | Speed | Heading |
|---|---|---|---|---|---|
| 2026-04-19 12:08 | 39.57602 | -104.84878 | 5890 ft | 0 kts | 88° |
| 2026-04-19 12:22 | 39.57602 | -104.84879 | 5890 ft | 1 kts | 88° |
| 2026-04-19 12:22 | 39.57598 | -104.84896 | 5890 ft | 3 kts | 50° |
| 2026-04-19 12:23 | 39.57581 | -104.84907 | 5890 ft | 3 kts | 7° |
| 2026-04-19 12:23 | 39.57580 | -104.84908 | 5890 ft | 3 kts | 357° |
| 2026-04-19 12:23 | 39.57614 | -104.84911 | 5890 ft | 8 kts | 354° |
| 2026-04-19 12:23 | 39.57698 | -104.84918 | 5890 ft | 17 kts | 358° |
| 2026-04-19 12:24 | 39.57834 | -104.84924 | 5890 ft | 22 kts | 357° |
| 2026-04-19 12:24 | 39.58005 | -104.84934 | 5890 ft | 26 kts | 356° |
| 2026-04-19 12:24 | 39.58192 | -104.84943 | 5890 ft | 23 kts | 359° |
| 2026-04-19 12:24 | 39.58319 | -104.84952 | 5890 ft | 14 kts | 357° |
| 2026-04-19 12:25 | 39.58400 | -104.84959 | 5890 ft | 10 kts | 324° |
| 2026-04-19 12:25 | 39.58409 | -104.85010 | 5890 ft | 9 kts | 269° |
| 2026-04-19 12:25 | 39.58406 | -104.85081 | 5890 ft | 0 kts | 264° |
| 2026-04-19 12:27 | 39.58405 | -104.85094 | 5890 ft | 5 kts | 264° |
| 2026-04-19 12:27 | 39.58389 | -104.85143 | 5890 ft | 8 kts | 197° |
| 2026-04-19 12:28 | 39.57617 | -104.85120 | 5914 ft | 104 kts | 179° |
| 2026-04-19 12:28 | 39.56805 | -104.85080 | 6115 ft | 124 kts | 179° |
| 2026-04-19 12:28 | 39.55922 | -104.85157 | 6595 ft | 127 kts | 197° |
| 2026-04-19 12:29 | 39.55216 | -104.85848 | 7042 ft | 133 kts | 236° |
| 2026-04-19 12:29 | 39.54829 | -104.86865 | 7702 ft | 118 kts | 245° |
| 2026-04-19 12:29 | 39.54473 | -104.87843 | 8174 ft | 126 kts | 245° |
| 2026-04-19 12:29 | 39.54079 | -104.88916 | 8563 ft | 134 kts | 245° |
| 2026-04-19 12:30 | 39.53686 | -104.89969 | 9134 ft | 126 kts | 245° |
| 2026-04-19 12:30 | 39.53297 | -104.90994 | 9573 ft | 129 kts | 245° |
| 2026-04-19 12:30 | 39.52891 | -104.92049 | 9996 ft | 133 kts | 245° |
| 2026-04-19 12:30 | 39.52468 | -104.93155 | 10352 ft | 140 kts | 246° |
| 2026-04-19 12:31 | 39.52041 | -104.94311 | 10736 ft | 144 kts | 247° |
| 2026-04-19 12:31 | 39.51599 | -104.95495 | 11120 ft | 147 kts | 247° |
| 2026-04-19 12:31 | 39.51146 | -104.96696 | 11501 ft | 150 kts | 247° |
| 2026-04-19 12:31 | 39.50556 | -104.97808 | 11875 ft | 155 kts | 230° |
| 2026-04-19 12:32 | 39.49741 | -104.98750 | 12259 ft | 157 kts | 226° |
| 2026-04-19 12:32 | 39.48897 | -104.99715 | 12451 ft | 167 kts | 227° |
| 2026-04-19 12:32 | 39.48015 | -105.00795 | 12517 ft | 182 kts | 229° |
| 2026-04-19 12:32 | 39.47095 | -105.01973 | 12533 ft | 193 kts | 229° |
| 2026-04-19 12:33 | 39.46134 | -105.03231 | 12536 ft | 198 kts | 230° |
| 2026-04-19 12:33 | 39.45158 | -105.04523 | 12546 ft | 201 kts | 230° |
| 2026-04-19 12:33 | 39.44176 | -105.05829 | 12549 ft | 203 kts | 230° |
| 2026-04-19 12:33 | 39.43203 | -105.07130 | 12549 ft | 204 kts | 230° |
| 2026-04-19 12:34 | 39.42213 | -105.08455 | 12549 ft | 205 kts | 230° |
| 2026-04-19 12:34 | 39.41215 | -105.09792 | 12549 ft | 206 kts | 230° |
| 2026-04-19 12:34 | 39.40219 | -105.11127 | 12550 ft | 206 kts | 230° |
| 2026-04-19 12:34 | 39.39237 | -105.12444 | 12545 ft | 206 kts | 230° |
| 2026-04-19 12:35 | 39.38239 | -105.13784 | 12536 ft | 207 kts | 230° |
| 2026-04-19 12:35 | 39.37231 | -105.15136 | 12529 ft | 207 kts | 230° |
| 2026-04-19 12:35 | 39.36237 | -105.16468 | 12508 ft | 208 kts | 230° |
| 2026-04-19 12:35 | 39.35233 | -105.17814 | 12502 ft | 208 kts | 230° |
| 2026-04-19 12:36 | 39.34228 | -105.19160 | 12501 ft | 207 kts | 230° |
| 2026-04-19 12:36 | 39.33224 | -105.20504 | 12500 ft | 207 kts | 230° |
| 2026-04-19 12:36 | 39.32225 | -105.21841 | 12501 ft | 207 kts | 230° |
| 2026-04-19 12:36 | 39.31235 | -105.23167 | 12501 ft | 207 kts | 230° |
| 2026-04-19 12:37 | 39.30234 | -105.24506 | 12505 ft | 206 kts | 230° |
| 2026-04-19 12:37 | 39.29236 | -105.25841 | 12508 ft | 206 kts | 230° |
| 2026-04-19 12:37 | 39.28244 | -105.27169 | 12510 ft | 204 kts | 229° |
| 2026-04-19 12:37 | 39.27265 | -105.28476 | 12513 ft | 206 kts | 229° |
| 2026-04-19 12:38 | 39.26261 | -105.29819 | 12513 ft | 210 kts | 229° |
| 2026-04-19 12:38 | 39.25398 | -105.31326 | 12509 ft | 209 kts | 248° |
| 2026-04-19 12:38 | 39.24992 | -105.33128 | 12515 ft | 209 kts | 259° |
| 2026-04-19 12:38 | 39.24725 | -105.34986 | 12505 ft | 211 kts | 261° |
| 2026-04-19 12:39 | 39.24465 | -105.36825 | 12501 ft | 211 kts | 261° |
| 2026-04-19 12:39 | 39.24175 | -105.38685 | 12502 ft | 211 kts | 259° |
| 2026-04-19 12:39 | 39.23859 | -105.40537 | 12505 ft | 211 kts | 258° |
| 2026-04-19 12:39 | 39.23520 | -105.42383 | 12511 ft | 211 kts | 258° |
| 2026-04-19 12:40 | 39.23167 | -105.44224 | 12518 ft | 211 kts | 257° |
| 2026-04-19 12:40 | 39.22802 | -105.46061 | 12526 ft | 211 kts | 257° |
| 2026-04-19 12:40 | 39.22433 | -105.47884 | 12558 ft | 209 kts | 257° |
| 2026-04-19 12:40 | 39.22060 | -105.49690 | 12595 ft | 208 kts | 257° |
| 2026-04-19 12:41 | 39.21688 | -105.51476 | 12605 ft | 209 kts | 257° |
| 2026-04-19 12:41 | 39.21308 | -105.53291 | 12606 ft | 210 kts | 257° |
| 2026-04-19 12:41 | 39.20927 | -105.55106 | 12606 ft | 210 kts | 257° |
| 2026-04-19 12:41 | 39.20542 | -105.56930 | 12606 ft | 210 kts | 256° |
| 2026-04-19 12:42 | 39.20157 | -105.58747 | 12607 ft | 210 kts | 256° |
| 2026-04-19 12:42 | 39.19770 | -105.60572 | 12589 ft | 211 kts | 256° |
| 2026-04-19 12:42 | 39.19385 | -105.62382 | 12568 ft | 212 kts | 256° |
| 2026-04-19 12:42 | 39.18992 | -105.64223 | 12563 ft | 212 kts | 256° |
| 2026-04-19 12:43 | 39.18600 | -105.66067 | 12520 ft | 214 kts | 256° |
| 2026-04-19 12:43 | 39.18205 | -105.67918 | 12504 ft | 214 kts | 256° |
| 2026-04-19 12:43 | 39.17810 | -105.69765 | 12500 ft | 213 kts | 256° |
| 2026-04-19 12:43 | 39.17416 | -105.71601 | 12523 ft | 212 kts | 256° |
| 2026-04-19 12:44 | 39.17026 | -105.73424 | 12545 ft | 211 kts | 256° |
| 2026-04-19 12:44 | 39.16641 | -105.75219 | 12552 ft | 211 kts | 256° |
| 2026-04-19 12:44 | 39.16251 | -105.77040 | 12555 ft | 211 kts | 256° |
| 2026-04-19 12:44 | 39.15860 | -105.78867 | 12559 ft | 212 kts | 256° |
| 2026-04-19 12:45 | 39.15467 | -105.80697 | 12560 ft | 212 kts | 255° |
| 2026-04-19 12:45 | 39.15073 | -105.82529 | 12561 ft | 212 kts | 255° |
| 2026-04-19 12:45 | 39.14677 | -105.84367 | 12560 ft | 212 kts | 255° |
| 2026-04-19 12:45 | 39.14282 | -105.86201 | 12559 ft | 212 kts | 255° |
| 2026-04-19 12:46 | 39.13885 | -105.88040 | 12559 ft | 213 kts | 255° |
| 2026-04-19 12:46 | 39.13494 | -105.89853 | 12557 ft | 213 kts | 255° |
| 2026-04-19 12:46 | 39.13097 | -105.91690 | 12556 ft | 213 kts | 255° |
| 2026-04-19 12:46 | 39.12700 | -105.93526 | 12555 ft | 213 kts | 255° |
| 2026-04-19 12:47 | 39.12302 | -105.95365 | 12562 ft | 212 kts | 255° |
| 2026-04-19 12:47 | 39.11911 | -105.97172 | 12699 ft | 206 kts | 255° |
| 2026-04-19 12:47 | 39.11529 | -105.98933 | 12864 ft | 201 kts | 255° |
| 2026-04-19 12:47 | 39.11156 | -106.00652 | 13029 ft | 197 kts | 255° |
| 2026-04-19 12:48 | 39.10789 | -106.02341 | 13195 ft | 194 kts | 255° |
| 2026-04-19 12:48 | 39.10433 | -106.03980 | 13360 ft | 191 kts | 255° |
| 2026-04-19 12:48 | 39.10076 | -106.05623 | 13527 ft | 189 kts | 255° |
| 2026-04-19 12:48 | 39.09724 | -106.07248 | 13695 ft | 187 kts | 255° |
| 2026-04-19 12:49 | 39.09373 | -106.08857 | 13861 ft | 186 kts | 256° |
| 2026-04-19 12:49 | 39.09025 | -106.10452 | 14028 ft | 184 kts | 256° |
| 2026-04-19 12:49 | 39.08680 | -106.12034 | 14195 ft | 183 kts | 256° |
| 2026-04-19 12:49 | 39.08337 | -106.13604 | 14363 ft | 181 kts | 256° |
| 2026-04-19 12:50 | 39.07997 | -106.15164 | 14530 ft | 180 kts | 256° |
| 2026-04-19 12:50 | 39.07663 | -106.16698 | 14695 ft | 180 kts | 256° |
| 2026-04-19 12:50 | 39.07325 | -106.18243 | 14863 ft | 179 kts | 256° |
| 2026-04-19 12:50 | 39.06989 | -106.19778 | 15029 ft | 178 kts | 256° |
| 2026-04-19 12:51 | 39.06654 | -106.21308 | 15197 ft | 177 kts | 256° |
| 2026-04-19 12:51 | 39.06321 | -106.22831 | 15365 ft | 176 kts | 257° |
| 2026-04-19 12:51 | 39.05988 | -106.24347 | 15532 ft | 176 kts | 257° |
| 2026-04-19 12:51 | 39.05657 | -106.25859 | 15700 ft | 175 kts | 257° |
| 2026-04-19 12:52 | 39.05326 | -106.27365 | 15868 ft | 174 kts | 257° |
| 2026-04-19 12:52 | 39.05001 | -106.28848 | 16034 ft | 173 kts | 257° |
| 2026-04-19 12:52 | 39.04673 | -106.30340 | 16202 ft | 173 kts | 257° |
| 2026-04-19 12:52 | 39.04346 | -106.31823 | 16358 ft | 172 kts | 257° |
| 2026-04-19 12:53 | 39.04019 | -106.33316 | 16465 ft | 175 kts | 257° |
| 2026-04-19 12:53 | 39.03684 | -106.34838 | 16499 ft | 179 kts | 257° |
| 2026-04-19 12:53 | 39.03341 | -106.36401 | 16503 ft | 183 kts | 257° |
| 2026-04-19 12:53 | 39.02989 | -106.37998 | 16501 ft | 186 kts | 257° |
| 2026-04-19 12:54 | 39.02633 | -106.39610 | 16500 ft | 188 kts | 257° |
| 2026-04-19 12:54 | 39.02274 | -106.41235 | 16499 ft | 190 kts | 257° |
| 2026-04-19 12:54 | 39.01916 | -106.42854 | 16497 ft | 190 kts | 257° |
| 2026-04-19 12:54 | 39.01553 | -106.44495 | 16496 ft | 191 kts | 257° |
| 2026-04-19 12:55 | 39.01188 | -106.46142 | 16496 ft | 192 kts | 257° |
| 2026-04-19 12:55 | 39.00822 | -106.47795 | 16496 ft | 192 kts | 257° |
| 2026-04-19 12:55 | 39.00454 | -106.49455 | 16496 ft | 192 kts | 257° |
| 2026-04-19 12:55 | 39.00087 | -106.51108 | 16496 ft | 192 kts | 257° |
| 2026-04-19 12:56 | 38.99720 | -106.52761 | 16496 ft | 193 kts | 257° |
| 2026-04-19 12:56 | 38.99357 | -106.54395 | 16496 ft | 193 kts | 257° |
| 2026-04-19 12:56 | 38.98988 | -106.56053 | 16496 ft | 193 kts | 257° |
| 2026-04-19 12:56 | 38.98619 | -106.57711 | 16496 ft | 193 kts | 257° |
| 2026-04-19 12:57 | 38.98250 | -106.59369 | 16496 ft | 193 kts | 257° |
| 2026-04-19 12:57 | 38.97880 | -106.61029 | 16496 ft | 193 kts | 257° |
| 2026-04-19 12:57 | 38.97510 | -106.62687 | 16496 ft | 193 kts | 257° |
| 2026-04-19 12:57 | 38.97141 | -106.64343 | 16496 ft | 193 kts | 257° |
| 2026-04-19 12:58 | 38.96770 | -106.66005 | 16490 ft | 193 kts | 257° |
| 2026-04-19 12:58 | 38.96398 | -106.67666 | 16488 ft | 193 kts | 257° |
| 2026-04-19 12:58 | 38.96027 | -106.69325 | 16487 ft | 193 kts | 257° |
| 2026-04-19 12:58 | 38.95660 | -106.70966 | 16487 ft | 193 kts | 257° |
| 2026-04-19 12:59 | 38.95288 | -106.72627 | 16487 ft | 193 kts | 257° |
| 2026-04-19 12:59 | 38.94915 | -106.74290 | 16487 ft | 193 kts | 257° |
| 2026-04-19 12:59 | 38.94544 | -106.75946 | 16487 ft | 193 kts | 257° |
| 2026-04-19 12:59 | 38.94171 | -106.77611 | 16489 ft | 193 kts | 256° |
| 2026-04-19 13:00 | 38.93797 | -106.79277 | 16490 ft | 194 kts | 256° |
| 2026-04-19 13:00 | 38.93428 | -106.80919 | 16490 ft | 194 kts | 256° |
| 2026-04-19 13:00 | 38.93053 | -106.82584 | 16490 ft | 194 kts | 256° |
| 2026-04-19 13:00 | 38.92676 | -106.84255 | 16491 ft | 194 kts | 256° |
| 2026-04-19 13:01 | 38.92301 | -106.85921 | 16491 ft | 194 kts | 256° |
| 2026-04-19 13:01 | 38.91925 | -106.87589 | 16491 ft | 194 kts | 256° |
| 2026-04-19 13:01 | 38.91549 | -106.89256 | 16488 ft | 195 kts | 256° |
| 2026-04-19 13:01 | 38.91170 | -106.90931 | 16487 ft | 195 kts | 256° |